Time;durP1;ratioP1;P1;durP2;ratioP2;P2;SDS_P1;SDS_P2;PMS_P1;PMS_P2;Temp;Humidity;BMP_temperature;BMP_pressure;BME280_temperature;BME280_humidity;BME280_pressure;Samples;Min_cycle;Max_cycle;Signal;HPM_P1;HPM_P2
2022/02/26 00:01:47;;;;;;;8.88;3.20;;;;;;;;;;5010758;28;20600;-46
2022/02/26 00:04:13;;;;;;;11.48;3.45;;;;;;;;;;5010271;28;20104;-45
2022/02/26 00:06:39;;;;;;;10.48;2.78;;;;;;;;;;5010434;28;20148;-45
2022/02/26 00:09:06;;;;;;;12.05;3.72;;;;;;;;;;5010428;28;20037;-44
2022/02/26 00:11:33;;;;;;;12.60;3.10;;;;;;;;;;5010236;28;20467;-44
2022/02/26 00:14:01;;;;;;;13.57;3.20;;;;;;;;;;5010684;28;20022;-44
2022/02/26 00:16:33;;;;;;;13.20;3.15;;;;;;;;;;5009851;28;20030;-44
2022/02/26 00:19:00;;;;;;;9.95;2.85;;;;;;;;;;5009717;28;20021;-47
2022/02/26 00:21:26;;;;;;;8.90;3.03;;;;;;;;;;5010124;28;20072;-42
2022/02/26 00:23:52;;;;;;;9.77;2.75;;;;;;;;;;5010201;28;20072;-45
2022/02/26 00:26:22;;;;;;;12.77;2.75;;;;;;;;;;5010297;28;20053;-43
2022/02/26 00:28:48;;;;;;;11.75;2.88;;;;;;;;;;5009764;28;20110;-45
2022/02/26 00:31:15;;;;;;;10.38;3.08;;;;;;;;;;5009619;28;20045;-42
2022/02/26 00:33:41;;;;;;;10.35;2.50;;;;;;;;;;5009498;28;20034;-44
2022/02/26 00:36:07;;;;;;;11.00;2.88;;;;;;;;;;5009889;28;20149;-45
2022/02/26 00:38:33;;;;;;;10.55;3.38;;;;;;;;;;5009446;28;20022;-42
2022/02/26 00:40:59;;;;;;;11.40;2.58;;;;;;;;;;5009865;28;20042;-41
2022/02/26 00:43:25;;;;;;;14.20;3.35;;;;;;;;;;5009655;28;20171;-42
2022/02/26 00:45:51;;;;;;;9.25;2.90;;;;;;;;;;5009615;28;20030;-46
2022/02/26 00:48:17;;;;;;;7.78;2.75;;;;;;;;;;5006320;28;20460;-43
2022/02/26 00:50:44;;;;;;;10.52;3.25;;;;;;;;;;5009383;28;20053;-42
2022/02/26 00:53:10;;;;;;;9.77;2.40;;;;;;;;;;5009611;28;20036;-45
2022/02/26 00:55:36;;;;;;;6.72;2.20;;;;;;;;;;5009891;28;20080;-42
2022/02/26 00:58:06;;;;;;;9.27;2.58;;;;;;;;;;5009545;28;20050;-43
2022/02/26 01:00:31;;;;;;;11.03;2.93;;;;;;;;;;5009504;28;20124;-44
2022/02/26 01:02:57;;;;;;;7.22;2.17;;;;;;;;;;5009228;28;20428;-42
2022/02/26 01:05:23;;;;;;;8.20;2.25;;;;;;;;;;5005330;28;20033;-43
2022/02/26 01:07:49;;;;;;;8.30;2.50;;;;;;;;;;5009107;28;20466;-43
2022/02/26 01:10:15;;;;;;;8.55;2.60;;;;;;;;;;5008888;28;20451;-42
2022/02/26 01:12:42;;;;;;;11.70;3.05;;;;;;;;;;5009254;28;20045;-43
2022/02/26 01:15:08;;;;;;;7.63;2.15;;;;;;;;;;5008647;28;20458;-45
2022/02/26 01:17:34;;;;;;;7.63;2.13;;;;;;;;;;5009172;28;20100;-44
2022/02/26 01:20:00;;;;;;;9.40;2.70;;;;;;;;;;5009007;28;20166;-47
2022/02/26 01:22:26;;;;;;;11.35;2.67;;;;;;;;;;5008475;28;20484;-44
2022/02/26 01:24:52;;;;;;;8.73;2.50;;;;;;;;;;5009359;28;20107;-45
2022/02/26 01:27:18;;;;;;;11.77;2.42;;;;;;;;;;5008544;28;20119;-42
2022/02/26 01:29:44;;;;;;;8.75;2.28;;;;;;;;;;5008625;28;20025;-43
2022/02/26 01:32:10;;;;;;;8.63;2.78;;;;;;;;;;5009160;28;20052;-44
2022/02/26 01:34:37;;;;;;;9.63;2.90;;;;;;;;;;5008496;28;20018;-43
2022/02/26 01:37:04;;;;;;;9.23;2.75;;;;;;;;;;5008953;28;20026;-42
2022/02/26 01:39:30;;;;;;;8.60;2.60;;;;;;;;;;5008803;28;20022;-42
2022/02/26 01:41:57;;;;;;;5.25;2.25;;;;;;;;;;5008473;28;20038;-43
2022/02/26 01:44:23;;;;;;;10.50;2.80;;;;;;;;;;5008327;28;20042;-42
2022/02/26 01:46:49;;;;;;;9.52;2.90;;;;;;;;;;5008617;28;20125;-45
2022/02/26 01:49:15;;;;;;;8.02;2.20;;;;;;;;;;5008410;28;20487;-41
2022/02/26 01:51:42;;;;;;;11.05;2.70;;;;;;;;;;5008430;28;20014;-40
2022/02/26 01:54:10;;;;;;;10.20;2.63;;;;;;;;;;5008950;28;20034;-42
2022/02/26 01:56:36;;;;;;;7.93;2.03;;;;;;;;;;5008518;28;20125;-41
2022/02/26 01:59:02;;;;;;;10.80;3.00;;;;;;;;;;5008449;28;21464;-43
2022/02/26 02:01:28;;;;;;;7.95;2.35;;;;;;;;;;5007772;28;20038;-45
2022/02/26 02:03:54;;;;;;;7.80;2.38;;;;;;;;;;5007992;28;20057;-43
2022/02/26 02:06:21;;;;;;;11.63;2.38;;;;;;;;;;5007930;28;20030;-42
2022/02/26 02:08:48;;;;;;;9.15;2.88;;;;;;;;;;5008270;28;20082;-45
2022/02/26 02:11:14;;;;;;;8.80;2.20;;;;;;;;;;5008042;28;20053;-41
2022/02/26 02:13:40;;;;;;;9.32;3.00;;;;;;;;;;5007931;28;20117;-44
2022/02/26 02:16:06;;;;;;;7.90;2.38;;;;;;;;;;5007825;28;20018;-43
2022/02/26 02:18:34;;;;;;;7.53;2.30;;;;;;;;;;5007688;28;20032;-43
2022/02/26 02:21:00;;;;;;;8.90;2.20;;;;;;;;;;5007973;28;20052;-41
2022/02/26 02:23:26;;;;;;;9.13;2.75;;;;;;;;;;5007288;28;20130;-43
2022/02/26 02:25:53;;;;;;;8.15;2.35;;;;;;;;;;5007886;28;20423;-46
2022/02/26 02:28:19;;;;;;;7.30;2.22;;;;;;;;;;5007952;28;20058;-46
2022/02/26 02:30:46;;;;;;;6.25;1.92;;;;;;;;;;5008522;28;20132;-47
2022/02/26 02:33:12;;;;;;;9.20;2.28;;;;;;;;;;5006773;28;20037;-43
2022/02/26 02:35:39;;;;;;;9.73;2.28;;;;;;;;;;5008225;28;20037;-46
2022/02/26 02:38:13;;;;;;;6.93;2.13;;;;;;;;;;5007171;28;20036;-43
2022/02/26 02:40:39;;;;;;;8.82;3.10;;;;;;;;;;5008169;28;20129;-42
2022/02/26 02:43:06;;;;;;;11.15;2.30;;;;;;;;;;5007567;28;20722;-41
2022/02/26 02:45:32;;;;;;;8.82;2.50;;;;;;;;;;5008218;28;20029;-40
2022/02/26 02:47:58;;;;;;;12.10;2.97;;;;;;;;;;5006157;28;20497;-42
2022/02/26 02:50:25;;;;;;;9.05;2.15;;;;;;;;;;5007211;28;20022;-46
2022/02/26 02:52:51;;;;;;;9.07;2.33;;;;;;;;;;5008033;28;20029;-46
2022/02/26 02:55:20;;;;;;;5.07;1.63;;;;;;;;;;5008022;28;20451;-44
2022/02/26 02:57:46;;;;;;;9.05;2.53;;;;;;;;;;5007652;28;20077;-44
2022/02/26 03:00:14;;;;;;;5.53;2.15;;;;;;;;;;5008025;28;20400;-43
2022/02/26 03:02:40;;;;;;;11.85;2.95;;;;;;;;;;5007236;28;20065;-44
2022/02/26 03:05:06;;;;;;;16.08;2.92;;;;;;;;;;5008053;28;20037;-43
2022/02/26 03:07:33;;;;;;;6.90;2.10;;;;;;;;;;5007227;28;20029;-44
2022/02/26 03:09:59;;;;;;;9.88;2.75;;;;;;;;;;5008011;28;20038;-43
2022/02/26 03:12:25;;;;;;;7.45;1.85;;;;;;;;;;5008384;28;20034;-44
2022/02/26 03:14:51;;;;;;;7.53;2.05;;;;;;;;;;5011722;28;20464;-45
2022/02/26 03:17:17;;;;;;;6.38;2.05;;;;;;;;;;5011163;28;20030;-45
2022/02/26 03:19:47;;;;;;;8.07;2.13;;;;;;;;;;5011215;28;20025;-44
2022/02/26 03:22:13;;;;;;;7.55;2.00;;;;;;;;;;5011190;28;20038;-43
2022/02/26 03:24:39;;;;;;;8.77;2.85;;;;;;;;;;5011248;28;20105;-42
2022/02/26 03:27:05;;;;;;;11.15;2.42;;;;;;;;;;5011187;28;20109;-43
2022/02/26 03:29:32;;;;;;;7.07;2.58;;;;;;;;;;5010699;28;20024;-42
2022/02/26 03:31:58;;;;;;;9.25;2.53;;;;;;;;;;5011422;28;20059;-45
2022/02/26 03:34:24;;;;;;;6.38;2.13;;;;;;;;;;5011631;28;20357;-42
2022/02/26 03:36:51;;;;;;;9.32;2.50;;;;;;;;;;5011499;28;20026;-45
2022/02/26 03:39:18;;;;;;;7.18;2.53;;;;;;;;;;5010080;28;20053;-44
2022/02/26 03:41:44;;;;;;;6.55;2.25;;;;;;;;;;5011299;28;20125;-44
2022/02/26 03:44:10;;;;;;;6.85;2.13;;;;;;;;;;5011353;28;20061;-45
2022/02/26 03:46:36;;;;;;;8.77;2.28;;;;;;;;;;5011005;28;20030;-43
2022/02/26 03:49:03;;;;;;;5.93;2.40;;;;;;;;;;5010567;28;20108;-45
2022/02/26 03:51:30;;;;;;;6.20;2.30;;;;;;;;;;5010533;28;20693;-45
2022/02/26 03:53:57;;;;;;;7.75;2.60;;;;;;;;;;5010691;28;20132;-44
2022/02/26 03:56:23;;;;;;;9.27;2.85;;;;;;;;;;5010792;28;20049;-44
2022/02/26 03:58:52;;;;;;;9.25;2.65;;;;;;;;;;5010941;28;20108;-43
2022/02/26 04:01:19;;;;;;;8.55;2.20;;;;;;;;;;5006462;28;20157;-45
2022/02/26 04:03:45;;;;;;;7.43;2.20;;;;;;;;;;5011050;28;20141;-44
2022/02/26 04:06:11;;;;;;;8.85;2.70;;;;;;;;;;5010478;28;20100;-44
2022/02/26 04:08:37;;;;;;;7.05;2.17;;;;;;;;;;5010249;28;20033;-41
2022/02/26 04:11:03;;;;;;;7.88;3.13;;;;;;;;;;5010293;28;20049;-44
2022/02/26 04:13:29;;;;;;;6.28;2.28;;;;;;;;;;5010033;28;20468;-47
2022/02/26 04:15:55;;;;;;;10.73;2.67;;;;;;;;;;5010381;28;20026;-44
2022/02/26 04:18:21;;;;;;;7.63;2.70;;;;;;;;;;5009859;28;20026;-42
2022/02/26 04:20:47;;;;;;;7.05;2.67;;;;;;;;;;5010041;28;20120;-44
2022/02/26 04:23:13;;;;;;;9.75;2.72;;;;;;;;;;5009428;28;20109;-45
2022/02/26 04:25:39;;;;;;;7.57;2.40;;;;;;;;;;5010015;28;20034;-44
2022/02/26 04:28:05;;;;;;;7.50;2.42;;;;;;;;;;5010459;28;20058;-43
2022/02/26 04:30:33;;;;;;;11.77;2.72;;;;;;;;;;5009753;28;20018;-43
2022/02/26 04:33:00;;;;;;;9.07;3.00;;;;;;;;;;5009956;28;20092;-46
2022/02/26 04:35:26;;;;;;;6.40;2.30;;;;;;;;;;5010079;28;20025;-49
2022/02/26 04:37:52;;;;;;;6.28;2.00;;;;;;;;;;5008861;28;20022;-45
2022/02/26 04:40:18;;;;;;;8.73;2.58;;;;;;;;;;5009330;28;20061;-43
2022/02/26 04:42:44;;;;;;;8.85;2.85;;;;;;;;;;5009793;28;20376;-44
2022/02/26 04:45:11;;;;;;;6.65;2.30;;;;;;;;;;5010353;28;20033;-44
2022/02/26 04:47:40;;;;;;;7.47;2.20;;;;;;;;;;5008948;28;20029;-46
2022/02/26 04:50:07;;;;;;;7.88;2.70;;;;;;;;;;5010075;28;20022;-44
2022/02/26 04:52:33;;;;;;;7.75;2.88;;;;;;;;;;5009520;28;20026;-44
2022/02/26 04:54:59;;;;;;;7.97;2.80;;;;;;;;;;5009644;28;20040;-43
2022/02/26 04:57:26;;;;;;;7.03;2.20;;;;;;;;;;5009710;28;20065;-48
2022/02/26 04:59:52;;;;;;;10.02;2.55;;;;;;;;;;5010529;28;20083;-47
2022/02/26 05:02:18;;;;;;;7.45;2.55;;;;;;;;;;5008549;28;20045;-43
2022/02/26 05:04:45;;;;;;;6.97;2.55;;;;;;;;;;5009447;28;20038;-43
2022/02/26 05:07:13;;;;;;;7.38;2.42;;;;;;;;;;5009515;28;20049;-42
2022/02/26 05:09:39;;;;;;;7.45;2.30;;;;;;;;;;5009273;28;20065;-46
2022/02/26 05:12:05;;;;;;;7.13;2.50;;;;;;;;;;5009134;28;20057;-46
2022/02/26 05:14:31;;;;;;;12.30;3.03;;;;;;;;;;5009400;28;20484;-41
2022/02/26 05:16:58;;;;;;;7.93;2.30;;;;;;;;;;5008876;28;20761;-47
2022/02/26 05:19:24;;;;;;;10.20;3.00;;;;;;;;;;5008829;28;20488;-40
2022/02/26 05:21:50;;;;;;;7.78;2.72;;;;;;;;;;5009026;28;20072;-43
2022/02/26 05:24:16;;;;;;;13.07;3.67;;;;;;;;;;5008893;28;20100;-42
2022/02/26 05:26:42;;;;;;;6.75;2.50;;;;;;;;;;5008464;28;20052;-44
2022/02/26 05:29:09;;;;;;;6.20;2.75;;;;;;;;;;5008808;28;20105;-44
2022/02/26 05:31:35;;;;;;;8.75;2.65;;;;;;;;;;5009026;28;20026;-43
2022/02/26 05:34:01;;;;;;;8.43;2.50;;;;;;;;;;5009179;28;20030;-43
2022/02/26 05:36:27;;;;;;;8.85;2.90;;;;;;;;;;5006500;28;20033;-43
2022/02/26 05:38:53;;;;;;;6.63;2.53;;;;;;;;;;5008935;28;20033;-42
2022/02/26 05:41:19;;;;;;;6.43;2.35;;;;;;;;;;5008629;28;20046;-47
2022/02/26 05:43:46;;;;;;;6.20;2.83;;;;;;;;;;5008787;28;20847;-44
2022/02/26 05:46:12;;;;;;;8.77;3.15;;;;;;;;;;5008918;28;20034;-44
2022/02/26 05:48:39;;;;;;;8.13;2.72;;;;;;;;;;4999759;28;20387;-41
2022/02/26 05:51:05;;;;;;;8.45;2.95;;;;;;;;;;5009282;28;20034;-45
2022/02/26 05:53:32;;;;;;;6.13;2.70;;;;;;;;;;5008587;28;20487;-43
2022/02/26 05:55:58;;;;;;;6.95;2.78;;;;;;;;;;5009499;28;20040;-42
2022/02/26 05:58:24;;;;;;;8.80;3.22;;;;;;;;;;5007903;28;20029;-41
2022/02/26 06:00:50;;;;;;;8.32;3.95;;;;;;;;;;5008552;28;20030;-42
2022/02/26 06:03:16;;;;;;;6.40;2.40;;;;;;;;;;5008210;28;20046;-43
2022/02/26 06:05:43;;;;;;;8.40;3.00;;;;;;;;;;5008696;28;20053;-41
2022/02/26 06:08:09;;;;;;;6.57;2.45;;;;;;;;;;5008543;28;20025;-43
2022/02/26 06:10:35;;;;;;;7.03;3.13;;;;;;;;;;5007975;28;20632;-41
2022/02/26 06:13:01;;;;;;;8.10;3.00;;;;;;;;;;5008480;28;20607;-42
2022/02/26 06:15:27;;;;;;;8.88;2.88;;;;;;;;;;5007811;28;20038;-43
2022/02/26 06:17:53;;;;;;;6.68;2.65;;;;;;;;;;5008461;28;20452;-41
2022/02/26 06:20:19;;;;;;;7.18;3.50;;;;;;;;;;5008015;28;20030;-42
2022/02/26 06:22:45;;;;;;;12.85;3.70;;;;;;;;;;5007180;28;20121;-43
2022/02/26 06:25:11;;;;;;;9.50;2.88;;;;;;;;;;5006298;28;20111;-44
2022/02/26 06:27:38;;;;;;;5.68;2.25;;;;;;;;;;5006734;28;20097;-43
2022/02/26 06:30:04;;;;;;;9.23;2.38;;;;;;;;;;5006926;28;20840;-45
2022/02/26 06:32:31;;;;;;;6.88;2.63;;;;;;;;;;5006804;28;20037;-48
2022/02/26 06:34:58;;;;;;;6.97;2.70;;;;;;;;;;5007059;28;20030;-44
2022/02/26 06:37:24;;;;;;;9.98;2.65;;;;;;;;;;5006550;28;20803;-41
2022/02/26 06:39:50;;;;;;;7.90;3.17;;;;;;;;;;5005831;28;20064;-41
2022/02/26 06:42:16;;;;;;;12.18;3.08;;;;;;;;;;5005935;28;20056;-43
2022/02/26 06:44:42;;;;;;;12.15;2.88;;;;;;;;;;5006443;28;20022;-42
2022/02/26 06:47:08;;;;;;;8.05;2.13;;;;;;;;;;5006465;28;20473;-42
2022/02/26 06:49:34;;;;;;;9.25;2.83;;;;;;;;;;5010911;28;20037;-42
2022/02/26 06:52:01;;;;;;;9.45;2.65;;;;;;;;;;5011622;28;20034;-43
2022/02/26 06:54:27;;;;;;;8.38;2.95;;;;;;;;;;5011610;28;20168;-42
2022/02/26 06:56:53;;;;;;;8.93;2.70;;;;;;;;;;5010841;28;20547;-42
2022/02/26 06:59:19;;;;;;;10.88;2.72;;;;;;;;;;5011639;28;20120;-41
2022/02/26 07:01:45;;;;;;;13.00;2.45;;;;;;;;;;5011559;28;20096;-43
2022/02/26 07:04:14;;;;;;;9.10;2.47;;;;;;;;;;5011362;28;20065;-44
2022/02/26 07:06:44;;;;;;;9.57;3.03;;;;;;;;;;5011398;28;20022;-44
2022/02/26 07:09:11;;;;;;;9.55;2.72;;;;;;;;;;5011780;28;20037;-42
2022/02/26 07:11:37;;;;;;;10.75;2.60;;;;;;;;;;5010341;28;20113;-40
2022/02/26 07:14:03;;;;;;;10.68;2.60;;;;;;;;;;5010835;28;20145;-45
2022/02/26 07:16:29;;;;;;;11.75;2.55;;;;;;;;;;5010513;28;20026;-56
2022/02/26 07:18:56;;;;;;;9.95;2.30;;;;;;;;;;5010742;28;20149;-42
2022/02/26 07:21:22;;;;;;;7.32;2.58;;;;;;;;;;5011405;28;20548;-45
2022/02/26 07:23:48;;;;;;;9.57;2.40;;;;;;;;;;5011606;28;20053;-43
2022/02/26 07:26:14;;;;;;;7.05;2.45;;;;;;;;;;5010858;28;20458;-43
2022/02/26 07:28:40;;;;;;;10.25;3.05;;;;;;;;;;5010844;28;20124;-45
2022/02/26 07:31:06;;;;;;;7.32;2.90;;;;;;;;;;5011632;28;20520;-47
2022/02/26 07:33:32;;;;;;;7.68;2.08;;;;;;;;;;5011035;28;20583;-44
2022/02/26 07:35:58;;;;;;;12.13;3.13;;;;;;;;;;5011359;28;20033;-46
2022/02/26 07:38:24;;;;;;;14.80;3.42;;;;;;;;;;5010693;28;20061;-42
2022/02/26 07:40:50;;;;;;;7.78;2.55;;;;;;;;;;5010832;28;20530;-43
2022/02/26 07:43:16;;;;;;;12.25;2.72;;;;;;;;;;5009672;28;20108;-45
2022/02/26 07:45:42;;;;;;;8.40;2.75;;;;;;;;;;5010583;28;20086;-43
2022/02/26 07:48:08;;;;;;;5.93;2.30;;;;;;;;;;5010254;28;20101;-47
2022/02/26 07:50:34;;;;;;;9.85;2.63;;;;;;;;;;5010629;28;20108;-44
2022/02/26 07:53:00;;;;;;;9.20;2.25;;;;;;;;;;5009628;28;20113;-42
2022/02/26 07:55:26;;;;;;;6.68;2.97;;;;;;;;;;5010182;28;20025;-49
2022/02/26 07:57:52;;;;;;;10.10;2.83;;;;;;;;;;5010260;28;20021;-45
2022/02/26 08:00:18;;;;;;;13.13;3.17;;;;;;;;;;5010373;28;20140;-45
2022/02/26 08:02:45;;;;;;;13.48;3.70;;;;;;;;;;5009689;28;20086;-45
2022/02/26 08:05:12;;;;;;;12.50;3.65;;;;;;;;;;5009315;28;20344;-47
2022/02/26 08:07:38;;;;;;;14.55;3.88;;;;;;;;;;5010348;28;20029;-44
2022/02/26 08:10:05;;;;;;;10.52;3.13;;;;;;;;;;5011152;28;20709;-47
2022/02/26 08:12:32;;;;;;;11.40;3.40;;;;;;;;;;5010423;28;20038;-44
2022/02/26 08:14:59;;;;;;;14.20;3.55;;;;;;;;;;5010953;28;20025;-45
2022/02/26 08:17:25;;;;;;;14.95;3.47;;;;;;;;;;5010211;28;20317;-46
2022/02/26 08:19:51;;;;;;;14.73;3.63;;;;;;;;;;5011032;28;20049;-44
2022/02/26 08:22:17;;;;;;;13.05;3.00;;;;;;;;;;5011052;28;20389;-43
2022/02/26 08:24:43;;;;;;;17.70;3.55;;;;;;;;;;5009399;28;20026;-47
2022/02/26 08:27:09;;;;;;;14.20;3.85;;;;;;;;;;5009416;28;20034;-43
2022/02/26 08:29:35;;;;;;;15.77;3.30;;;;;;;;;;5009172;28;20030;-46
2022/02/26 08:32:01;;;;;;;11.52;4.07;;;;;;;;;;5009379;28;20026;-46
2022/02/26 08:34:28;;;;;;;18.77;3.67;;;;;;;;;;5009421;28;20108;-44
2022/02/26 08:36:54;;;;;;;14.13;3.15;;;;;;;;;;5009323;28;20034;-44
2022/02/26 08:39:24;;;;;;;13.00;3.38;;;;;;;;;;5009457;28;20638;-45
2022/02/26 08:41:50;;;;;;;17.87;3.00;;;;;;;;;;5010907;28;20065;-43
2022/02/26 08:44:16;;;;;;;14.23;2.72;;;;;;;;;;5010261;28;20113;-45
2022/02/26 08:46:42;;;;;;;16.88;3.13;;;;;;;;;;5010048;28;20109;-44
2022/02/26 08:49:08;;;;;;;14.70;3.50;;;;;;;;;;5010136;28;20029;-48
2022/02/26 08:51:34;;;;;;;11.60;2.47;;;;;;;;;;5010158;28;20036;-43
2022/02/26 08:54:00;;;;;;;13.88;2.90;;;;;;;;;;5009007;28;20652;-44
2022/02/26 08:56:26;;;;;;;12.98;3.03;;;;;;;;;;5009382;28;20054;-43
2022/02/26 08:58:53;;;;;;;9.77;2.80;;;;;;;;;;5009449;28;20459;-43
2022/02/26 09:01:19;;;;;;;8.35;3.25;;;;;;;;;;5006373;28;20144;-44
2022/02/26 09:03:45;;;;;;;20.50;4.05;;;;;;;;;;5007960;28;20404;-45
2022/02/26 09:06:12;;;;;;;15.20;4.32;;;;;;;;;;5008366;28;20061;-43
2022/02/26 09:08:38;;;;;;;19.73;3.58;;;;;;;;;;5007880;28;20026;-45
2022/02/26 09:11:07;;;;;;;10.32;2.88;;;;;;;;;;5006985;28;20038;-47
2022/02/26 09:13:42;;;;;;;11.52;2.95;;;;;;;;;;5007540;28;20416;-42
2022/02/26 09:16:08;;;;;;;12.27;3.20;;;;;;;;;;5007491;28;20060;-45
2022/02/26 09:18:34;;;;;;;9.63;3.58;;;;;;;;;;5008406;28;20045;-43
2022/02/26 09:21:01;;;;;;;12.55;3.72;;;;;;;;;;5007942;28;20034;-42
2022/02/26 09:23:31;;;;;;;17.92;4.05;;;;;;;;;;5007573;28;20022;-42
2022/02/26 09:25:57;;;;;;;10.82;4.05;;;;;;;;;;5007412;28;20460;-44
2022/02/26 09:28:23;;;;;;;12.52;4.03;;;;;;;;;;5008209;28;20022;-42
2022/02/26 09:30:49;;;;;;;12.25;3.22;;;;;;;;;;5008422;28;20059;-45
2022/02/26 09:33:15;;;;;;;14.02;5.95;;;;;;;;;;5008061;28;20036;-44
2022/02/26 09:35:41;;;;;;;13.20;5.32;;;;;;;;;;5008977;28;20052;-44
2022/02/26 09:38:07;;;;;;;11.38;4.88;;;;;;;;;;5008886;28;20022;-42
2022/02/26 09:40:33;;;;;;;17.20;5.88;;;;;;;;;;5007695;28;20469;-43
2022/02/26 09:43:00;;;;;;;13.63;5.47;;;;;;;;;;5008263;28;20484;-46
2022/02/26 09:45:26;;;;;;;12.43;4.80;;;;;;;;;;5008751;28;20076;-43
2022/02/26 09:47:52;;;;;;;10.60;4.55;;;;;;;;;;5005067;28;20552;-43
2022/02/26 09:50:19;;;;;;;14.55;5.50;;;;;;;;;;5008670;28;20052;-46
2022/02/26 09:52:46;;;;;;;15.82;6.20;;;;;;;;;;5008649;28;20037;-45
2022/02/26 09:55:13;;;;;;;9.77;4.70;;;;;;;;;;5008505;28;20049;-43
2022/02/26 09:57:39;;;;;;;9.80;4.65;;;;;;;;;;5009154;28;20030;-42
2022/02/26 10:00:07;;;;;;;14.05;4.43;;;;;;;;;;5008967;28;20057;-45
2022/02/26 10:02:38;;;;;;;8.63;4.25;;;;;;;;;;5007943;28;20069;-42
2022/02/26 10:05:07;;;;;;;11.90;5.00;;;;;;;;;;5008690;28;20038;-46
2022/02/26 10:07:34;;;;;;;11.27;5.13;;;;;;;;;;5007924;28;20101;-45
2022/02/26 10:10:00;;;;;;;10.00;3.80;;;;;;;;;;5008515;28;20040;-47
2022/02/26 10:12:33;;;;;;;10.63;4.35;;;;;;;;;;5008264;28;20446;-48
2022/02/26 10:15:03;;;;;;;10.35;4.65;;;;;;;;;;5008360;28;20037;-44
2022/02/26 10:17:34;;;;;;;9.70;4.35;;;;;;;;;;5008149;28;20041;-47
2022/02/26 10:20:00;;;;;;;12.50;4.18;;;;;;;;;;5008921;28;20112;-44
2022/02/26 10:22:31;;;;;;;17.30;4.18;;;;;;;;;;5007419;28;20074;-45
2022/02/26 10:25:03;;;;;;;12.65;4.53;;;;;;;;;;5008688;28;20519;-45
2022/02/26 10:27:29;;;;;;;15.43;5.18;;;;;;;;;;5008314;28;20022;-41
2022/02/26 10:29:55;;;;;;;14.40;4.60;;;;;;;;;;5007971;28;20173;-44
2022/02/26 10:32:21;;;;;;;12.82;3.67;;;;;;;;;;5007423;28;20146;-44
2022/02/26 10:34:47;;;;;;;13.68;4.60;;;;;;;;;;5008303;28;20084;-43
2022/02/26 10:37:17;;;;;;;10.95;3.78;;;;;;;;;;5008366;28;20473;-44
2022/02/26 10:39:43;;;;;;;18.80;4.63;;;;;;;;;;5008529;28;20030;-42
2022/02/26 10:42:16;;;;;;;12.10;3.92;;;;;;;;;;5008055;28;20057;-42
2022/02/26 10:44:42;;;;;;;12.05;3.05;;;;;;;;;;5006794;28;20109;-46
2022/02/26 10:47:08;;;;;;;10.90;3.85;;;;;;;;;;5007542;28;20121;-44
2022/02/26 10:49:35;;;;;;;12.63;4.25;;;;;;;;;;5007872;28;20149;-44
2022/02/26 10:52:07;;;;;;;11.07;3.78;;;;;;;;;;5008081;28;20030;-42
2022/02/26 10:54:33;;;;;;;11.38;3.22;;;;;;;;;;5007120;28;20030;-43
2022/02/26 10:57:04;;;;;;;7.72;3.50;;;;;;;;;;5008095;28;20494;-43
2022/02/26 10:59:42;;;;;;;10.48;3.95;;;;;;;;;;5007444;28;20480;-46
2022/02/26 11:02:09;;;;;;;10.32;3.03;;;;;;;;;;5003651;28;20052;-43
2022/02/26 11:04:36;;;;;;;9.52;3.88;;;;;;;;;;5006991;28;20049;-42
2022/02/26 11:07:03;;;;;;;8.77;3.40;;;;;;;;;;5007974;28;20062;-42
2022/02/26 11:09:29;;;;;;;12.07;3.17;;;;;;;;;;5007293;28;20471;-44
2022/02/26 11:11:58;;;;;;;8.82;2.95;;;;;;;;;;5008089;28;20041;-42
2022/02/26 11:14:25;;;;;;;9.67;3.27;;;;;;;;;;5007573;28;20029;-46
2022/02/26 11:16:58;;;;;;;14.73;2.97;;;;;;;;;;5007724;28;20026;-44
2022/02/26 11:19:25;;;;;;;11.18;3.08;;;;;;;;;;5007907;28;20800;-42
2022/02/26 11:21:52;;;;;;;12.60;3.03;;;;;;;;;;5007595;28;20049;-43
2022/02/26 11:24:18;;;;;;;10.05;2.83;;;;;;;;;;5007790;28;20110;-43
2022/02/26 11:26:45;;;;;;;12.82;2.85;;;;;;;;;;5007600;28;20037;-44
2022/02/26 11:29:12;;;;;;;10.52;2.65;;;;;;;;;;5007950;28;20048;-43
2022/02/26 11:31:43;;;;;;;20.85;3.38;;;;;;;;;;5006119;28;20080;-41
2022/02/26 11:34:09;;;;;;;11.73;2.97;;;;;;;;;;5009943;28;20062;-43
2022/02/26 11:36:49;;;;;;;18.15;3.47;;;;;;;;;;5011312;28;20056;-45
2022/02/26 11:39:26;;;;;;;10.63;2.78;;;;;;;;;;5009793;28;20044;-45
2022/02/26 11:42:12;;;;;;;12.10;3.50;;;;;;;;;;5011032;28;20030;-42
2022/02/26 11:44:38;;;;;;;12.68;2.90;;;;;;;;;;5010586;28;20530;-45
2022/02/26 11:47:14;;;;;;;13.80;3.33;;;;;;;;;;5011347;28;20116;-49
2022/02/26 11:49:55;;;;;;;22.33;3.15;;;;;;;;;;5010927;28;20084;-46
2022/02/26 11:52:35;;;;;;;10.73;2.45;;;;;;;;;;5010669;28;20037;-42
2022/02/26 11:55:01;;;;;;;18.08;3.15;;;;;;;;;;5011104;28;20506;-43
2022/02/26 11:57:30;;;;;;;14.50;3.65;;;;;;;;;;5011036;28;20228;-48
2022/02/26 12:00:08;;;;;;;14.27;3.33;;;;;;;;;;5010701;28;20052;-45
2022/02/26 12:02:34;;;;;;;14.40;3.08;;;;;;;;;;5009799;28;20076;-46
2022/02/26 12:05:00;;;;;;;13.63;3.45;;;;;;;;;;5010311;28;20026;-46
2022/02/26 12:07:31;;;;;;;15.70;3.22;;;;;;;;;;5010464;28;20836;-42
2022/02/26 12:09:57;;;;;;;;;;;;;;;;;;5011339;28;20167;-45
2022/02/26 12:12:30;;;;;;;14.23;2.42;;;;;;;;;;5010164;28;19914;-45
2022/02/26 12:14:57;;;;;;;14.68;3.50;;;;;;;;;;5010072;28;20041;-42
2022/02/26 12:17:24;;;;;;;15.65;3.42;;;;;;;;;;5009837;28;20030;-45
2022/02/26 12:19:52;;;;;;;13.60;2.55;;;;;;;;;;5010760;28;20108;-46
2022/02/26 12:22:19;;;;;;;16.48;2.63;;;;;;;;;;5009536;28;20068;-40
2022/02/26 12:24:50;;;;;;;12.40;3.13;;;;;;;;;;5010713;28;20116;-44
2022/02/26 12:27:16;;;;;;;11.55;3.10;;;;;;;;;;5010336;28;20033;-45
2022/02/26 12:29:45;;;;;;;12.63;2.95;;;;;;;;;;5010339;28;20476;-46
2022/02/26 12:32:20;;;;;;;14.02;3.08;;;;;;;;;;5010112;28;20105;-42
2022/02/26 12:34:53;;;;;;;11.88;3.13;;;;;;;;;;5009891;28;20029;-44
2022/02/26 12:37:21;;;;;;;12.70;2.97;;;;;;;;;;5009379;28;20495;-46
2022/02/26 12:39:52;;;;;;;10.73;2.60;;;;;;;;;;5010235;28;20033;-43
2022/02/26 12:42:19;;;;;;;13.70;2.60;;;;;;;;;;5009621;28;20407;-44
2022/02/26 12:44:46;;;;;;;9.23;2.15;;;;;;;;;;5009654;28;20049;-42
2022/02/26 12:47:12;;;;;;;11.73;2.80;;;;;;;;;;5009600;28;20061;-43
2022/02/26 12:49:38;;;;;;;11.02;3.30;;;;;;;;;;5009533;28;20101;-47
2022/02/26 12:52:04;;;;;;;8.82;2.50;;;;;;;;;;5010028;28;20117;-42
2022/02/26 12:54:32;;;;;;;7.13;2.10;;;;;;;;;;5009589;28;20121;-42
2022/02/26 12:56:58;;;;;;;10.98;2.75;;;;;;;;;;5008617;28;20118;-47
2022/02/26 12:59:27;;;;;;;15.95;3.08;;;;;;;;;;5007004;28;20042;-44
2022/02/26 13:01:53;;;;;;;11.27;2.90;;;;;;;;;;5005580;28;20156;-46
2022/02/26 13:04:24;;;;;;;11.65;3.53;;;;;;;;;;5006780;28;20058;-43
2022/02/26 13:06:54;;;;;;;11.07;2.60;;;;;;;;;;5004801;28;20018;-42
2022/02/26 13:09:21;;;;;;;12.00;2.58;;;;;;;;;;5006671;28;20030;-45
2022/02/26 13:11:48;;;;;;;9.50;2.95;;;;;;;;;;5005526;28;20034;-45
2022/02/26 13:14:14;;;;;;;14.02;2.40;;;;;;;;;;5007618;28;20113;-44
2022/02/26 13:16:42;;;;;;;9.00;2.55;;;;;;;;;;5006474;28;20385;-45
2022/02/26 13:19:08;;;;;;;7.72;2.10;;;;;;;;;;5008079;28;20076;-47
2022/02/26 13:21:35;;;;;;;11.05;1.92;;;;;;;;;;5007983;28;20076;-44
2022/02/26 13:24:06;;;;;;;11.18;2.55;;;;;;;;;;5008013;28;20030;-46
2022/02/26 13:26:34;;;;;;;12.52;2.60;;;;;;;;;;5008050;28;20504;-46
2022/02/26 13:29:00;;;;;;;10.95;2.60;;;;;;;;;;5007556;28;20057;-44
2022/02/26 13:31:33;;;;;;;11.20;2.50;;;;;;;;;;5005710;28;20058;-44
2022/02/26 13:34:19;;;;;;;10.38;2.00;;;;;;;;;;5007991;28;20574;-46
2022/02/26 13:36:46;;;;;;;16.05;3.00;;;;;;;;;;5008598;28;20034;-42
2022/02/26 13:39:12;;;;;;;11.15;2.28;;;;;;;;;;5008790;28;20026;-43
2022/02/26 13:41:40;;;;;;;6.90;2.10;;;;;;;;;;5007501;28;20053;-45
2022/02/26 13:44:07;;;;;;;11.35;2.38;;;;;;;;;;5008693;28;20042;-45
2022/02/26 13:46:36;;;;;;;9.18;2.65;;;;;;;;;;5008259;28;20772;-45
2022/02/26 13:49:02;;;;;;;9.13;2.78;;;;;;;;;;5008870;28;20083;-43
2022/02/26 13:51:34;;;;;;;9.38;2.58;;;;;;;;;;5008300;28;20030;-44
2022/02/26 13:54:01;;;;;;;10.57;2.42;;;;;;;;;;5013139;28;20021;-45
2022/02/26 13:56:29;;;;;;;10.02;2.40;;;;;;;;;;5014780;28;20037;-47
2022/02/26 13:58:55;;;;;;;9.10;2.65;;;;;;;;;;5008636;28;20041;-49
2022/02/26 14:01:21;;;;;;;7.35;2.42;;;;;;;;;;5008045;28;20399;-45
2022/02/26 14:03:53;;;;;;;9.13;2.38;;;;;;;;;;5008797;28;20086;-44
2022/02/26 14:06:33;;;;;;;8.25;2.70;;;;;;;;;;5008170;28;20062;-49
2022/02/26 14:08:59;;;;;;;10.73;2.47;;;;;;;;;;5008521;28;20037;-43
2022/02/26 14:11:32;;;;;;;14.23;3.10;;;;;;;;;;5008146;28;20041;-43
2022/02/26 14:13:58;;;;;;;9.25;2.42;;;;;;;;;;5008188;28;20033;-44
2022/02/26 14:16:25;;;;;;;9.60;2.60;;;;;;;;;;5007991;28;20093;-48
2022/02/26 14:18:51;;;;;;;8.93;2.40;;;;;;;;;;5008302;28;20022;-45
2022/02/26 14:21:20;;;;;;;15.57;3.45;;;;;;;;;;5007259;28;20065;-43
2022/02/26 14:23:50;;;;;;;14.25;3.40;;;;;;;;;;5006775;28;20080;-48
2022/02/26 14:26:16;;;;;;;10.03;2.77;;;;;;;;;;5007348;28;20030;-45
2022/02/26 14:28:43;;;;;;;8.50;2.35;;;;;;;;;;5007687;28;20057;-45
2022/02/26 14:31:12;;;;;;;10.63;3.20;;;;;;;;;;5006427;28;20042;-46
2022/02/26 14:33:38;;;;;;;11.38;3.03;;;;;;;;;;5006489;28;20068;-44
2022/02/26 14:36:05;;;;;;;9.82;2.83;;;;;;;;;;5007067;28;20160;-46